sensor_id;sensor_type;location;lat;lon;timestamp;P1;durP1;ratioP1;P2;durP2;ratioP2
67602;SDS011;54417;47.454;18.918;2023-11-21T00:04:28;12.38;;;7.95;;
67602;SDS011;54417;47.454;18.918;2023-11-21T00:09:38;16.90;;;8.73;;
67602;SDS011;54417;47.454;18.918;2023-11-21T00:14:47;14.25;;;9.52;;
67602;SDS011;54417;47.454;18.918;2023-11-21T00:19:55;11.20;;;7.97;;
67602;SDS011;54417;47.454;18.918;2023-11-21T00:25:06;13.10;;;7.95;;
67602;SDS011;54417;47.454;18.918;2023-11-21T00:30:16;14.68;;;8.85;;
67602;SDS011;54417;47.454;18.918;2023-11-21T00:35:27;14.40;;;8.77;;
67602;SDS011;54417;47.454;18.918;2023-11-21T00:40:37;14.93;;;8.70;;
67602;SDS011;54417;47.454;18.918;2023-11-21T00:45:46;14.77;;;8.40;;
67602;SDS011;54417;47.454;18.918;2023-11-21T00:50:56;15.00;;;9.00;;
67602;SDS011;54417;47.454;18.918;2023-11-21T00:56:06;15.55;;;7.90;;
67602;SDS011;54417;47.454;18.918;2023-11-21T01:01:11;14.52;;;7.75;;
67602;SDS011;54417;47.454;18.918;2023-11-21T01:06:20;11.60;;;8.40;;
67602;SDS011;54417;47.454;18.918;2023-11-21T01:11:30;12.95;;;7.78;;
67602;SDS011;54417;47.454;18.918;2023-11-21T01:16:42;19.27;;;8.48;;
67602;SDS011;54417;47.454;18.918;2023-11-21T01:21:51;23.65;;;8.70;;
67602;SDS011;54417;47.454;18.918;2023-11-21T01:27:01;15.05;;;8.48;;
67602;SDS011;54417;47.454;18.918;2023-11-21T01:32:11;12.98;;;9.10;;
67602;SDS011;54417;47.454;18.918;2023-11-21T01:37:20;10.82;;;7.72;;
67602;SDS011;54417;47.454;18.918;2023-11-21T01:42:31;15.75;;;7.47;;
67602;SDS011;54417;47.454;18.918;2023-11-21T01:47:35;14.45;;;7.47;;
67602;SDS011;54417;47.454;18.918;2023-11-21T01:52:45;12.43;;;7.90;;
67602;SDS011;54417;47.454;18.918;2023-11-21T01:57:57;14.55;;;6.28;;
67602;SDS011;54417;47.454;18.918;2023-11-21T02:03:06;10.18;;;6.95;;
67602;SDS011;54417;47.454;18.918;2023-11-21T02:08:15;20.42;;;8.07;;
67602;SDS011;54417;47.454;18.918;2023-11-21T02:13:25;17.25;;;7.35;;
67602;SDS011;54417;47.454;18.918;2023-11-21T02:18:34;8.73;;;7.05;;
67602;SDS011;54417;47.454;18.918;2023-11-21T02:23:45;11.95;;;6.55;;
67602;SDS011;54417;47.454;18.918;2023-11-21T02:28:54;12.38;;;6.40;;
67602;SDS011;54417;47.454;18.918;2023-11-21T02:34:05;11.93;;;6.75;;
67602;SDS011;54417;47.454;18.918;2023-11-21T02:39:15;9.20;;;5.82;;
67602;SDS011;54417;47.454;18.918;2023-11-21T02:44:24;19.95;;;7.20;;
67602;SDS011;54417;47.454;18.918;2023-11-21T02:49:33;11.02;;;5.95;;
67602;SDS011;54417;47.454;18.918;2023-11-21T02:54:44;13.10;;;5.78;;
67602;SDS011;54417;47.454;18.918;2023-11-21T02:59:53;7.80;;;5.78;;
67602;SDS011;54417;47.454;18.918;2023-11-21T03:05:01;13.23;;;6.65;;
67602;SDS011;54417;47.454;18.918;2023-11-21T03:10:14;14.47;;;5.87;;
67602;SDS011;54417;47.454;18.918;2023-11-21T03:15:23;13.93;;;5.63;;
67602;SDS011;54417;47.454;18.918;2023-11-21T03:20:32;10.40;;;5.25;;
67602;SDS011;54417;47.454;18.918;2023-11-21T03:25:43;9.98;;;6.30;;
67602;SDS011;54417;47.454;18.918;2023-11-21T03:30:47;6.28;;;5.35;;
67602;SDS011;54417;47.454;18.918;2023-11-21T03:35:56;12.02;;;5.45;;
67602;SDS011;54417;47.454;18.918;2023-11-21T03:41:06;9.52;;;5.22;;
67602;SDS011;54417;47.454;18.918;2023-11-21T03:46:18;11.25;;;6.00;;
67602;SDS011;54417;47.454;18.918;2023-11-21T03:51:27;10.35;;;6.80;;
67602;SDS011;54417;47.454;18.918;2023-11-21T03:56:37;11.48;;;5.25;;
67602;SDS011;54417;47.454;18.918;2023-11-21T04:01:45;10.25;;;6.40;;
67602;SDS011;54417;47.454;18.918;2023-11-21T04:06:54;9.48;;;4.70;;
67602;SDS011;54417;47.454;18.918;2023-11-21T04:12:05;9.13;;;5.07;;
67602;SDS011;54417;47.454;18.918;2023-11-21T04:17:17;7.78;;;4.63;;
67602;SDS011;54417;47.454;18.918;2023-11-21T04:22:26;11.45;;;4.72;;
67602;SDS011;54417;47.454;18.918;2023-11-21T04:27:37;9.98;;;5.05;;
67602;SDS011;54417;47.454;18.918;2023-11-21T04:32:41;11.70;;;5.88;;
67602;SDS011;54417;47.454;18.918;2023-11-21T04:37:50;10.05;;;5.40;;
67602;SDS011;54417;47.454;18.918;2023-11-21T04:42:55;10.63;;;5.65;;
67602;SDS011;54417;47.454;18.918;2023-11-21T04:48:00;10.55;;;5.47;;
67602;SDS011;54417;47.454;18.918;2023-11-21T04:53:09;9.43;;;5.10;;
67602;SDS011;54417;47.454;18.918;2023-11-21T04:58:21;9.25;;;5.15;;
67602;SDS011;54417;47.454;18.918;2023-11-21T05:03:30;10.18;;;6.10;;
67602;SDS011;54417;47.454;18.918;2023-11-21T05:08:34;12.80;;;5.65;;
67602;SDS011;54417;47.454;18.918;2023-11-21T05:13:45;11.02;;;5.53;;
67602;SDS011;54417;47.454;18.918;2023-11-21T05:18:54;12.93;;;4.90;;
67602;SDS011;54417;47.454;18.918;2023-11-21T05:24:07;8.70;;;5.10;;
67602;SDS011;54417;47.454;18.918;2023-11-21T05:29:17;10.95;;;5.95;;
67602;SDS011;54417;47.454;18.918;2023-11-21T05:34:26;17.90;;;5.70;;
67602;SDS011;54417;47.454;18.918;2023-11-21T05:39:35;11.20;;;5.63;;
67602;SDS011;54417;47.454;18.918;2023-11-21T05:44:45;10.45;;;6.22;;
67602;SDS011;54417;47.454;18.918;2023-11-21T05:49:54;8.63;;;4.88;;
67602;SDS011;54417;47.454;18.918;2023-11-21T05:55:03;12.68;;;5.68;;
67602;SDS011;54417;47.454;18.918;2023-11-21T06:00:15;9.75;;;5.93;;
67602;SDS011;54417;47.454;18.918;2023-11-21T06:05:28;9.30;;;5.80;;
67602;SDS011;54417;47.454;18.918;2023-11-21T06:10:39;8.07;;;5.27;;
67602;SDS011;54417;47.454;18.918;2023-11-21T06:15:49;10.77;;;6.10;;
67602;SDS011;54417;47.454;18.918;2023-11-21T06:20:58;16.83;;;5.65;;
67602;SDS011;54417;47.454;18.918;2023-11-21T06:26:07;12.98;;;5.70;;
67602;SDS011;54417;47.454;18.918;2023-11-21T06:31:18;14.10;;;6.85;;
67602;SDS011;54417;47.454;18.918;2023-11-21T06:36:29;14.30;;;5.80;;
67602;SDS011;54417;47.454;18.918;2023-11-21T06:41:38;10.55;;;5.60;;
67602;SDS011;54417;47.454;18.918;2023-11-21T06:46:48;12.50;;;5.53;;
67602;SDS011;54417;47.454;18.918;2023-11-21T06:51:57;10.43;;;5.30;;
67602;SDS011;54417;47.454;18.918;2023-11-21T06:57:01;11.38;;;5.97;;
67602;SDS011;54417;47.454;18.918;2023-11-21T07:02:11;8.18;;;4.97;;
67602;SDS011;54417;47.454;18.918;2023-11-21T07:07:20;10.10;;;5.50;;
67602;SDS011;54417;47.454;18.918;2023-11-21T07:12:29;18.73;;;7.15;;
67602;SDS011;54417;47.454;18.918;2023-11-21T07:17:39;15.27;;;6.50;;
67602;SDS011;54417;47.454;18.918;2023-11-21T07:22:48;10.98;;;6.53;;
67602;SDS011;54417;47.454;18.918;2023-11-21T07:27:57;12.70;;;6.25;;
67602;SDS011;54417;47.454;18.918;2023-11-21T07:33:07;12.50;;;6.47;;
67602;SDS011;54417;47.454;18.918;2023-11-21T07:38:16;12.75;;;6.45;;
67602;SDS011;54417;47.454;18.918;2023-11-21T07:43:25;12.75;;;5.70;;
67602;SDS011;54417;47.454;18.918;2023-11-21T07:48:35;9.25;;;5.07;;
67602;SDS011;54417;47.454;18.918;2023-11-21T07:53:44;12.93;;;6.18;;
67602;SDS011;54417;47.454;18.918;2023-11-21T07:58:53;11.07;;;5.50;;
67602;SDS011;54417;47.454;18.918;2023-11-21T08:04:03;10.15;;;5.10;;
67602;SDS011;54417;47.454;18.918;2023-11-21T08:09:14;11.73;;;6.18;;
67602;SDS011;54417;47.454;18.918;2023-11-21T08:14:19;7.78;;;5.13;;
67602;SDS011;54417;47.454;18.918;2023-11-21T08:19:29;9.45;;;5.53;;
67602;SDS011;54417;47.454;18.918;2023-11-21T08:24:40;14.15;;;5.07;;
67602;SDS011;54417;47.454;18.918;2023-11-21T08:29:43;11.43;;;5.18;;
67602;SDS011;54417;47.454;18.918;2023-11-21T08:34:54;6.60;;;4.45;;
67602;SDS011;54417;47.454;18.918;2023-11-21T08:40:03;10.27;;;5.03;;
67602;SDS011;54417;47.454;18.918;2023-11-21T08:45:16;6.70;;;4.13;;
67602;SDS011;54417;47.454;18.918;2023-11-21T08:50:27;9.15;;;4.72;;
67602;SDS011;54417;47.454;18.918;2023-11-21T08:55:35;8.68;;;5.10;;
67602;SDS011;54417;47.454;18.918;2023-11-21T09:00:45;12.25;;;5.28;;
67602;SDS011;54417;47.454;18.918;2023-11-21T09:05:55;10.30;;;5.03;;
67602;SDS011;54417;47.454;18.918;2023-11-21T09:11:00;10.77;;;5.68;;
67602;SDS011;54417;47.454;18.918;2023-11-21T09:16:10;9.65;;;5.93;;
67602;SDS011;54417;47.454;18.918;2023-11-21T09:21:15;23.67;;;12.93;;
67602;SDS011;54417;47.454;18.918;2023-11-21T09:26:24;17.23;;;10.88;;
67602;SDS011;54417;47.454;18.918;2023-11-21T09:31:33;13.73;;;7.15;;
67602;SDS011;54417;47.454;18.918;2023-11-21T09:36:39;13.82;;;6.85;;
67602;SDS011;54417;47.454;18.918;2023-11-21T09:41:49;14.20;;;7.75;;
67602;SDS011;54417;47.454;18.918;2023-11-21T09:46:54;15.23;;;7.30;;
67602;SDS011;54417;47.454;18.918;2023-11-21T09:52:08;17.90;;;8.57;;
67602;SDS011;54417;47.454;18.918;2023-11-21T09:57:23;8.30;;;5.35;;
67602;SDS011;54417;47.454;18.918;2023-11-21T10:02:32;7.78;;;4.40;;
67602;SDS011;54417;47.454;18.918;2023-11-21T10:07:41;8.38;;;5.35;;
67602;SDS011;54417;47.454;18.918;2023-11-21T10:12:53;20.33;;;5.95;;
67602;SDS011;54417;47.454;18.918;2023-11-21T10:18:05;13.48;;;5.95;;
67602;SDS011;54417;47.454;18.918;2023-11-21T10:23:18;12.85;;;6.35;;
67602;SDS011;54417;47.454;18.918;2023-11-21T10:28:28;13.65;;;5.53;;
67602;SDS011;54417;47.454;18.918;2023-11-21T10:33:37;10.52;;;5.35;;
67602;SDS011;54417;47.454;18.918;2023-11-21T10:38:47;11.55;;;5.70;;
67602;SDS011;54417;47.454;18.918;2023-11-21T10:44:00;14.77;;;6.70;;
67602;SDS011;54417;47.454;18.918;2023-11-21T10:49:11;9.10;;;6.22;;
67602;SDS011;54417;47.454;18.918;2023-11-21T10:54:22;11.05;;;7.00;;
67602;SDS011;54417;47.454;18.918;2023-11-21T10:59:28;11.73;;;6.45;;
67602;SDS011;54417;47.454;18.918;2023-11-21T11:04:39;11.57;;;6.05;;
67602;SDS011;54417;47.454;18.918;2023-11-21T11:09:50;14.13;;;5.68;;
67602;SDS011;54417;47.454;18.918;2023-11-21T11:14:59;18.97;;;6.03;;
67602;SDS011;54417;47.454;18.918;2023-11-21T11:20:11;14.70;;;5.67;;
67602;SDS011;54417;47.454;18.918;2023-11-21T11:31:04;10.70;;;5.78;;
67602;SDS011;54417;47.454;18.918;2023-11-21T11:36:22;15.00;;;4.38;;
67602;SDS011;54417;47.454;18.918;2023-11-21T11:41:37;10.82;;;4.38;;
67602;SDS011;54417;47.454;18.918;2023-11-21T11:46:46;9.57;;;4.60;;
67602;SDS011;54417;47.454;18.918;2023-11-21T11:57:34;9.70;;;4.15;;
67602;SDS011;54417;47.454;18.918;2023-11-21T12:02:46;6.93;;;4.30;;
67602;SDS011;54417;47.454;18.918;2023-11-21T12:07:56;11.77;;;4.70;;
67602;SDS011;54417;47.454;18.918;2023-11-21T12:13:02;7.05;;;3.88;;
67602;SDS011;54417;47.454;18.918;2023-11-21T12:18:14;9.65;;;4.28;;
67602;SDS011;54417;47.454;18.918;2023-11-21T12:23:19;9.32;;;4.65;;
67602;SDS011;54417;47.454;18.918;2023-11-21T12:28:24;13.70;;;4.75;;
67602;SDS011;54417;47.454;18.918;2023-11-21T12:33:35;7.35;;;4.47;;
67602;SDS011;54417;47.454;18.918;2023-11-21T12:38:44;11.45;;;5.28;;
67602;SDS011;54417;47.454;18.918;2023-11-21T12:43:54;9.50;;;5.32;;
67602;SDS011;54417;47.454;18.918;2023-11-21T12:49:03;12.30;;;5.43;;
67602;SDS011;54417;47.454;18.918;2023-11-21T12:54:12;15.80;;;5.80;;
67602;SDS011;54417;47.454;18.918;2023-11-21T12:59:17;16.60;;;7.55;;
67602;SDS011;54417;47.454;18.918;2023-11-21T13:04:30;37.03;;;13.85;;
67602;SDS011;54417;47.454;18.918;2023-11-21T13:09:39;14.43;;;6.93;;
67602;SDS011;54417;47.454;18.918;2023-11-21T13:14:46;13.35;;;6.40;;
67602;SDS011;54417;47.454;18.918;2023-11-21T13:19:50;16.92;;;6.15;;
67602;SDS011;54417;47.454;18.918;2023-11-21T13:24:59;12.20;;;5.88;;
67602;SDS011;54417;47.454;18.918;2023-11-21T13:30:15;12.73;;;5.57;;
67602;SDS011;54417;47.454;18.918;2023-11-21T13:35:26;10.15;;;5.03;;
67602;SDS011;54417;47.454;18.918;2023-11-21T13:40:40;4.45;;;3.50;;
67602;SDS011;54417;47.454;18.918;2023-11-21T13:45:53;7.30;;;4.75;;
67602;SDS011;54417;47.454;18.918;2023-11-21T13:51:07;10.93;;;5.40;;
67602;SDS011;54417;47.454;18.918;2023-11-21T13:56:23;11.52;;;4.45;;
67602;SDS011;54417;47.454;18.918;2023-11-21T14:01:34;6.60;;;3.72;;
67602;SDS011;54417;47.454;18.918;2023-11-21T14:07:01;10.38;;;4.20;;
67602;SDS011;54417;47.454;18.918;2023-11-21T14:12:28;7.53;;;4.05;;
67602;SDS011;54417;47.454;18.918;2023-11-21T14:17:46;8.43;;;3.60;;
67602;SDS011;54417;47.454;18.918;2023-11-21T14:22:56;6.22;;;3.20;;
67602;SDS011;54417;47.454;18.918;2023-11-21T14:28:00;4.68;;;3.63;;
67602;SDS011;54417;47.454;18.918;2023-11-21T14:33:11;5.85;;;2.92;;
67602;SDS011;54417;47.454;18.918;2023-11-21T14:38:20;7.60;;;3.85;;
67602;SDS011;54417;47.454;18.918;2023-11-21T14:43:29;9.60;;;3.40;;
67602;SDS011;54417;47.454;18.918;2023-11-21T14:48:43;7.95;;;3.55;;
67602;SDS011;54417;47.454;18.918;2023-11-21T14:53:55;5.03;;;3.00;;
67602;SDS011;54417;47.454;18.918;2023-11-21T14:59:07;3.97;;;3.13;;
67602;SDS011;54417;47.454;18.918;2023-11-21T15:04:20;7.80;;;3.15;;
67602;SDS011;54417;47.454;18.918;2023-11-21T15:09:39;5.82;;;3.28;;
67602;SDS011;54417;47.454;18.918;2023-11-21T15:14:49;6.40;;;3.42;;
67602;SDS011;54417;47.454;18.918;2023-11-21T15:20:02;8.55;;;3.97;;
67602;SDS011;54417;47.454;18.918;2023-11-21T15:25:14;11.80;;;5.10;;
67602;SDS011;54417;47.454;18.918;2023-11-21T15:30:23;11.60;;;7.63;;
67602;SDS011;54417;47.454;18.918;2023-11-21T15:35:34;10.88;;;5.65;;
67602;SDS011;54417;47.454;18.918;2023-11-21T15:40:40;14.93;;;7.85;;
67602;SDS011;54417;47.454;18.918;2023-11-21T15:45:45;9.55;;;6.78;;
67602;SDS011;54417;47.454;18.918;2023-11-21T15:50:55;13.85;;;6.20;;
67602;SDS011;54417;47.454;18.918;2023-11-21T15:56:05;14.33;;;7.67;;
67602;SDS011;54417;47.454;18.918;2023-11-21T16:01:18;12.50;;;6.72;;
67602;SDS011;54417;47.454;18.918;2023-11-21T16:06:30;6.15;;;3.42;;
67602;SDS011;54417;47.454;18.918;2023-11-21T16:11:45;8.25;;;3.20;;
67602;SDS011;54417;47.454;18.918;2023-11-21T16:16:54;4.13;;;3.45;;
67602;SDS011;54417;47.454;18.918;2023-11-21T16:22:01;5.32;;;3.85;;
67602;SDS011;54417;47.454;18.918;2023-11-21T16:27:10;20.43;;;5.70;;
67602;SDS011;54417;47.454;18.918;2023-11-21T16:32:19;16.08;;;6.80;;
67602;SDS011;54417;47.454;18.918;2023-11-21T16:37:24;11.30;;;7.20;;
67602;SDS011;54417;47.454;18.918;2023-11-21T16:42:36;16.38;;;6.80;;
67602;SDS011;54417;47.454;18.918;2023-11-21T16:47:42;19.85;;;7.43;;
67602;SDS011;54417;47.454;18.918;2023-11-21T16:52:52;9.57;;;5.50;;
67602;SDS011;54417;47.454;18.918;2023-11-21T16:58:01;9.80;;;5.22;;
67602;SDS011;54417;47.454;18.918;2023-11-21T17:03:10;7.80;;;5.10;;
67602;SDS011;54417;47.454;18.918;2023-11-21T17:08:20;6.88;;;4.35;;
67602;SDS011;54417;47.454;18.918;2023-11-21T17:13:30;11.00;;;4.20;;
67602;SDS011;54417;47.454;18.918;2023-11-21T17:18:38;13.25;;;5.50;;
67602;SDS011;54417;47.454;18.918;2023-11-21T17:23:49;10.45;;;4.75;;
67602;SDS011;54417;47.454;18.918;2023-11-21T17:29:02;9.18;;;5.45;;
67602;SDS011;54417;47.454;18.918;2023-11-21T17:34:11;15.07;;;4.35;;
67602;SDS011;54417;47.454;18.918;2023-11-21T17:39:17;10.20;;;5.22;;
67602;SDS011;54417;47.454;18.918;2023-11-21T17:44:26;8.35;;;4.32;;
67602;SDS011;54417;47.454;18.918;2023-11-21T17:49:35;8.68;;;4.38;;
67602;SDS011;54417;47.454;18.918;2023-11-21T17:54:45;8.98;;;5.18;;
67602;SDS011;54417;47.454;18.918;2023-11-21T17:59:53;13.20;;;7.32;;
67602;SDS011;54417;47.454;18.918;2023-11-21T18:05:02;11.13;;;6.65;;
67602;SDS011;54417;47.454;18.918;2023-11-21T18:10:19;12.23;;;6.43;;
67602;SDS011;54417;47.454;18.918;2023-11-21T18:15:28;8.65;;;5.43;;
67602;SDS011;54417;47.454;18.918;2023-11-21T18:20:37;9.18;;;5.15;;
67602;SDS011;54417;47.454;18.918;2023-11-21T18:25:47;9.82;;;5.70;;
67602;SDS011;54417;47.454;18.918;2023-11-21T18:30:56;9.77;;;5.43;;
67602;SDS011;54417;47.454;18.918;2023-11-21T18:36:06;10.00;;;6.22;;
67602;SDS011;54417;47.454;18.918;2023-11-21T18:41:11;13.27;;;7.32;;
67602;SDS011;54417;47.454;18.918;2023-11-21T18:46:28;10.82;;;6.68;;
67602;SDS011;54417;47.454;18.918;2023-11-21T18:51:32;13.68;;;6.68;;
67602;SDS011;54417;47.454;18.918;2023-11-21T18:56:40;13.57;;;6.93;;
67602;SDS011;54417;47.454;18.918;2023-11-21T19:01:49;14.57;;;6.88;;
67602;SDS011;54417;47.454;18.918;2023-11-21T19:06:53;15.98;;;8.48;;
67602;SDS011;54417;47.454;18.918;2023-11-21T19:12:03;15.85;;;8.75;;
67602;SDS011;54417;47.454;18.918;2023-11-21T19:17:08;18.35;;;7.22;;
67602;SDS011;54417;47.454;18.918;2023-11-21T19:22:17;10.63;;;7.65;;
67602;SDS011;54417;47.454;18.918;2023-11-21T19:27:27;13.95;;;8.35;;
67602;SDS011;54417;47.454;18.918;2023-11-21T19:32:37;14.80;;;9.53;;
67602;SDS011;54417;47.454;18.918;2023-11-21T19:37:41;30.23;;;12.77;;
67602;SDS011;54417;47.454;18.918;2023-11-21T19:42:51;20.05;;;11.60;;
67602;SDS011;54417;47.454;18.918;2023-11-21T19:48:00;23.00;;;12.18;;
67602;SDS011;54417;47.454;18.918;2023-11-21T19:53:10;20.45;;;11.60;;
67602;SDS011;54417;47.454;18.918;2023-11-21T19:58:20;16.38;;;9.40;;
67602;SDS011;54417;47.454;18.918;2023-11-21T20:03:28;15.98;;;10.48;;
67602;SDS011;54417;47.454;18.918;2023-11-21T20:08:39;18.58;;;10.80;;
67602;SDS011;54417;47.454;18.918;2023-11-21T20:13:50;14.15;;;8.63;;
67602;SDS011;54417;47.454;18.918;2023-11-21T20:19:00;12.93;;;8.05;;
67602;SDS011;54417;47.454;18.918;2023-11-21T20:24:09;15.30;;;9.07;;
67602;SDS011;54417;47.454;18.918;2023-11-21T20:29:22;17.65;;;9.82;;
67602;SDS011;54417;47.454;18.918;2023-11-21T20:34:30;14.35;;;7.63;;
67602;SDS011;54417;47.454;18.918;2023-11-21T20:39:40;13.80;;;8.07;;
67602;SDS011;54417;47.454;18.918;2023-11-21T20:44:50;13.15;;;9.10;;
67602;SDS011;54417;47.454;18.918;2023-11-21T20:49:58;14.25;;;8.18;;
67602;SDS011;54417;47.454;18.918;2023-11-21T20:55:07;11.70;;;8.43;;
67602;SDS011;54417;47.454;18.918;2023-11-21T21:00:18;15.98;;;10.43;;
67602;SDS011;54417;47.454;18.918;2023-11-21T21:05:23;24.05;;;11.18;;
67602;SDS011;54417;47.454;18.918;2023-11-21T21:10:34;16.15;;;9.00;;
67602;SDS011;54417;47.454;18.918;2023-11-21T21:15:44;14.50;;;9.73;;
67602;SDS011;54417;47.454;18.918;2023-11-21T21:20:55;18.08;;;11.25;;
67602;SDS011;54417;47.454;18.918;2023-11-21T21:26:05;19.58;;;11.25;;
67602;SDS011;54417;47.454;18.918;2023-11-21T21:31:18;20.70;;;12.32;;
67602;SDS011;54417;47.454;18.918;2023-11-21T21:36:26;25.98;;;13.07;;
67602;SDS011;54417;47.454;18.918;2023-11-21T21:41:35;25.45;;;13.02;;
67602;SDS011;54417;47.454;18.918;2023-11-21T21:46:45;20.02;;;11.75;;
67602;SDS011;54417;47.454;18.918;2023-11-21T21:51:54;20.05;;;11.80;;
67602;SDS011;54417;47.454;18.918;2023-11-21T21:57:03;20.75;;;10.35;;
67602;SDS011;54417;47.454;18.918;2023-11-21T22:02:14;18.73;;;10.32;;
67602;SDS011;54417;47.454;18.918;2023-11-21T22:07:23;24.00;;;11.00;;
67602;SDS011;54417;47.454;18.918;2023-11-21T22:12:32;25.33;;;12.82;;
67602;SDS011;54417;47.454;18.918;2023-11-21T22:17:42;26.73;;;12.55;;
67602;SDS011;54417;47.454;18.918;2023-11-21T22:22:51;19.25;;;11.75;;
67602;SDS011;54417;47.454;18.918;2023-11-21T22:28:00;22.55;;;13.02;;
67602;SDS011;54417;47.454;18.918;2023-11-21T22:33:10;15.82;;;11.15;;
67602;SDS011;54417;47.454;18.918;2023-11-21T22:38:13;18.08;;;10.50;;
67602;SDS011;54417;47.454;18.918;2023-11-21T22:43:23;16.30;;;10.40;;
67602;SDS011;54417;47.454;18.918;2023-11-21T22:48:33;19.27;;;11.73;;
67602;SDS011;54417;47.454;18.918;2023-11-21T22:53:42;20.30;;;12.18;;
67602;SDS011;54417;47.454;18.918;2023-11-21T22:58:51;18.58;;;11.95;;
67602;SDS011;54417;47.454;18.918;2023-11-21T23:04:01;22.15;;;11.90;;
67602;SDS011;54417;47.454;18.918;2023-11-21T23:09:11;21.88;;;12.70;;
67602;SDS011;54417;47.454;18.918;2023-11-21T23:14:20;23.48;;;12.63;;
67602;SDS011;54417;47.454;18.918;2023-11-21T23:19:25;21.30;;;11.95;;
67602;SDS011;54417;47.454;18.918;2023-11-21T23:24:32;19.88;;;11.35;;
67602;SDS011;54417;47.454;18.918;2023-11-21T23:29:41;20.58;;;11.85;;
67602;SDS011;54417;47.454;18.918;2023-11-21T23:34:53;20.33;;;11.95;;
67602;SDS011;54417;47.454;18.918;2023-11-21T23:40:01;16.15;;;11.15;;
67602;SDS011;54417;47.454;18.918;2023-11-21T23:45:14;25.55;;;12.30;;
67602;SDS011;54417;47.454;18.918;2023-11-21T23:50:25;33.92;;;16.98;;
67602;SDS011;54417;47.454;18.918;2023-11-21T23:55:34;27.83;;;13.82;;
